Time;durP1;ratioP1;P1;durP2;ratioP2;P2;SDS_P1;SDS_P2;PMS_P1;PMS_P2;Temp;Humidity;BMP_temperature;BMP_pressure;BME280_temperature;BME280_humidity;BME280_pressure;Samples;Min_cycle;Max_cycle;Signal;HPM_P1;HPM_P2
2023/03/12 00:07:58;;;;;;;7.07;4.57;;;;;;;-2.40;74.19;99609.00;30619651;28;97363;-62
2023/03/12 00:22:59;;;;;;;5.78;4.22;;;;;;;-2.45;74.22;99601.47;30617938;28;96737;-61
2023/03/12 00:37:59;;;;;;;7.65;5.07;;;;;;;-2.53;73.88;99621.16;30616619;28;96701;-61
2023/03/12 00:53:00;;;;;;;4.63;3.33;;;;;;;-2.56;74.21;99611.78;30614766;28;96686;-61
2023/03/12 01:08:00;;;;;;;6.72;3.60;;;;;;;-2.59;74.52;99625.84;30614519;28;97232;-62
2023/03/12 01:23:00;;;;;;;8.60;4.53;;;;;;;-2.73;74.14;99626.75;30612841;28;97588;-62
2023/03/12 01:38:01;;;;;;;4.25;2.78;;;;;;;-2.84;74.27;99610.09;30612278;28;96597;-62
2023/03/12 01:53:01;;;;;;;5.60;2.88;;;;;;;-2.79;74.33;99621.09;30610349;28;97193;-61
2023/03/12 02:08:02;;;;;;;3.72;2.40;;;;;;;-2.82;73.80;99621.28;30630186;28;96575;-62
2023/03/12 02:23:12;;;;;;;6.72;3.25;;;;;;;-2.66;73.89;99635.00;30629570;28;97208;-62
2023/03/12 02:38:27;;;;;;;4.25;2.88;;;;;;;-2.40;73.30;99645.50;30628759;28;96553;-62
2023/03/12 02:53:28;;;;;;;1.70;1.00;;;;;;;-2.19;72.90;99640.63;30626822;28;96737;-61
2023/03/12 03:08:29;;;;;;;7.63;1.40;;;;;;;-2.08;72.77;99653.81;30624332;28;96783;-62
2023/03/12 03:23:29;;;;;;;2.10;1.52;;;;;;;-2.11;72.43;99664.44;30623764;28;96765;-62
2023/03/12 03:38:31;;;;;;;2.00;1.70;;;;;;;-2.23;71.48;99689.59;30622794;28;96755;-62
2023/03/12 03:53:31;;;;;;;2.20;1.38;;;;;;;-2.28;71.90;99690.84;30620904;28;96756;-61
2023/03/12 04:08:34;;;;;;;2.90;1.95;;;;;;;-2.29;71.85;99694.38;30619445;28;97346;-62
2023/03/12 04:23:36;;;;;;;3.60;1.75;;;;;;;-2.11;71.90;99703.59;30617786;28;96607;-62
2023/03/12 04:38:36;;;;;;;1.75;1.02;;;;;;;-1.57;70.72;99718.31;30616050;28;96975;-62
2023/03/12 04:53:36;;;;;;;1.98;1.42;;;;;;;-1.55;69.38;99728.66;30614608;28;97307;-62
2023/03/12 05:08:37;;;;;;;2.95;1.75;;;;;;;-1.49;69.66;99762.22;30612605;28;96678;-62
2023/03/12 05:23:38;;;;;;;1.95;1.25;;;;;;;-1.48;68.39;99763.84;30611622;28;96759;-61
2023/03/12 05:38:39;;;;;;;2.20;1.27;;;;;;;-1.51;68.40;99769.28;30625205;28;96610;-62
2023/03/12 05:53:39;;;;;;;1.92;1.40;;;;;;;-1.15;67.82;99780.78;30631176;28;96841;-62
2023/03/12 06:08:41;;;;;;;1.90;1.13;;;;;;;-0.75;66.46;99798.97;30629823;28;97343;-63
2023/03/12 06:23:41;;;;;;;2.92;0.77;;;;;;;-0.03;66.40;99821.81;30627557;28;96625;-62
2023/03/12 06:38:42;;;;;;;0.73;0.65;;;;;;;1.00;64.94;99826.41;30626626;28;97927;-63
2023/03/12 06:53:44;;;;;;;2.58;1.50;;;;;;;2.09;63.29;99833.69;30624222;28;97660;-62
2023/03/12 07:08:44;;;;;;;2.67;0.88;;;;;;;2.99;60.48;99848.19;30623734;28;96590;-62
2023/03/12 07:23:45;;;;;;;4.80;1.50;;;;;;;3.91;59.18;99865.78;30620301;28;96673;-63
2023/03/12 07:38:45;;;;;;;2.67;1.20;;;;;;;6.13;57.16;99870.06;30619882;28;97226;-63
2023/03/12 07:53:46;;;;;;;5.97;1.55;;;;;;;5.46;53.00;99878.19;30617382;28;97318;-63
2023/03/12 08:08:46;;;;;;;2.28;1.30;;;;;;;5.17;52.77;99897.59;30617738;28;97019;-63
2023/03/12 08:23:46;;;;;;;4.20;1.80;;;;;;;5.06;52.12;99907.31;30616374;28;97317;-64
2023/03/12 08:38:47;;;;;;;4.13;1.90;;;;;;;6.19;50.76;99911.78;30615118;28;96680;-63
2023/03/12 08:53:47;;;;;;;2.92;1.92;;;;;;;7.75;48.28;99910.34;30612843;28;96629;-63
2023/03/12 09:08:50;;;;;;;3.88;1.75;;;;;;;9.65;43.83;99923.84;30612528;28;96842;-64
2023/03/12 09:23:50;;;;;;;4.20;2.10;;;;;;;20.05;32.66;99916.81;30611078;28;98492;-64
2023/03/12 09:38:51;;;;;;;3.65;1.77;;;;;;;23.48;23.60;99916.25;30610542;28;97345;-64
2023/03/12 09:53:59;;;;;;;4.17;1.67;;;;;;;30.12;17.25;99911.59;30609212;28;97196;-64
2023/03/12 10:09:10;;;;;;;3.60;1.40;;;;;;;33.33;13.67;99892.09;30606641;28;96785;-62
2023/03/12 10:24:27;;;;;;;5.10;1.70;;;;;;;34.04;12.46;99893.34;30618150;28;96941;-65
2023/03/12 10:39:28;;;;;;;5.00;1.90;;;;;;;29.86;13.34;99910.19;30625733;28;96743;-62
2023/03/12 10:54:35;;;;;;;5.85;1.60;;;;;;;34.98;10.05;99904.28;30623499;28;97834;-63
2023/03/12 11:09:35;;;;;;;4.03;2.30;;;;;;;35.18;9.82;99892.31;30622884;28;96834;-63
2023/03/12 11:24:54;;;;;;;4.55;2.30;;;;;;;33.01;10.81;99883.25;30621944;28;96557;-63
2023/03/12 11:40:24;;;;;;;5.33;2.07;;;;;;;32.09;11.25;99864.16;30617867;28;97132;-63
2023/03/12 11:55:44;;;;;;;4.17;2.20;;;;;;;25.62;14.82;99860.72;30616938;28;96651;-63
2023/03/12 12:11:15;;;;;;;5.13;2.37;;;;;;;19.10;19.28;99847.50;30618142;28;96558;-62
2023/03/12 12:27:06;;;;;;;3.50;1.93;;;;;;;19.40;19.28;99834.94;30616731;28;97548;-61
2023/03/12 12:42:14;;;;;;;3.93;1.67;;;;;;;18.63;20.45;99846.63;30602734;28;97802;-62
2023/03/12 12:57:15;;;;;;;5.60;2.33;;;;;;;15.36;23.80;99819.72;30612756;28;97214;-62
2023/03/12 13:12:46;;;;;;;6.15;2.33;;;;;;;15.12;24.53;99808.63;30611348;28;96788;-63
2023/03/12 13:27:56;;;;;;;3.67;1.77;;;;;;;20.36;19.69;99788.41;30610566;28;97167;-63
2023/03/12 13:43:10;;;;;;;7.53;2.87;;;;;;;15.78;23.79;99801.38;30608030;28;96652;-63
2023/03/12 13:58:22;;;;;;;4.97;2.10;;;;;;;12.00;27.71;99814.81;30620063;28;96699;-62
2023/03/12 14:13:27;;;;;;;6.27;2.23;;;;;;;10.19;30.75;99802.50;30629156;28;97016;-63
2023/03/12 14:28:29;;;;;;;6.40;2.37;;;;;;;9.21;32.96;99794.00;30627467;28;96893;-63
2023/03/12 14:43:33;;;;;;;7.87;2.80;;;;;;;7.63;35.78;99789.66;30625458;28;97520;-62
2023/03/12 14:58:40;;;;;;;7.73;4.13;;;;;;;6.97;37.62;99784.09;30624069;28;97459;-62
2023/03/12 15:13:41;;;;;;;5.93;3.20;;;;;;;6.29;39.75;99753.84;30623701;28;97112;-61
2023/03/12 15:28:41;;;;;;;7.22;3.63;;;;;;;5.71;41.00;99771.78;30621597;28;96699;-61
2023/03/12 15:43:44;;;;;;;2.92;1.50;;;;;;;5.16;39.41;99758.59;30619848;28;96846;-62
2023/03/12 15:58:45;;;;;;;3.63;2.03;;;;;;;4.74;40.38;99752.78;30618775;28;96602;-63
2023/03/12 16:13:48;;;;;;;6.85;2.72;;;;;;;4.42;40.79;99710.09;30615242;28;98590;-64
2023/03/12 16:28:48;;;;;;;9.32;2.63;;;;;;;4.21;41.37;99713.72;30615752;28;96677;-62
2023/03/12 16:43:52;;;;;;;5.85;3.33;;;;;;;4.13;41.74;99695.97;30614628;28;97017;-62
2023/03/12 16:58:53;;;;;;;9.17;3.73;;;;;;;4.08;43.01;99714.00;30612501;28;96570;-62
2023/03/12 17:13:59;;;;;;;11.73;4.63;;;;;;;3.98;44.82;99714.03;30612115;28;97083;-62
2023/03/12 17:28:59;;;;;;;9.85;4.25;;;;;;;3.96;46.00;99715.94;30609739;28;97203;-63
2023/03/12 17:44:02;;;;;;;8.05;3.60;;;;;;;3.94;47.16;99712.63;30609764;28;96702;-62
2023/03/12 17:59:02;;;;;;;7.85;3.50;;;;;;;3.83;47.90;99725.97;30608150;28;97169;-61
2023/03/12 18:14:03;;;;;;;11.80;3.50;;;;;;;3.78;49.05;99697.38;30607705;28;97030;-61
2023/03/12 18:29:03;;;;;;;15.73;5.25;;;;;;;3.72;49.50;99682.13;30606415;28;98128;-62
2023/03/12 18:44:05;;;;;;;6.53;3.75;;;;;;;3.77;50.06;99679.88;30616160;28;97290;-61
2023/03/12 18:59:08;;;;;;;12.48;4.60;;;;;;;3.88;49.87;99657.84;30625704;28;97783;-62
2023/03/12 19:14:09;;;;;;;11.50;5.10;;;;;;;3.90;50.20;99625.09;30622481;28;96713;-63
2023/03/12 19:29:09;;;;;;;15.63;6.32;;;;;;;3.84;50.65;99632.75;30621600;28;96729;-62
2023/03/12 19:44:11;;;;;;;10.80;5.90;;;;;;;3.68;51.94;99609.63;30619226;28;96802;-62
2023/03/12 19:59:11;;;;;;;15.27;7.05;;;;;;;3.59;52.33;99598.09;30616865;28;96721;-62
2023/03/12 20:14:12;;;;;;;16.50;7.25;;;;;;;3.62;53.05;99603.09;30617932;28;96755;-61
2023/03/12 20:29:12;;;;;;;11.32;5.45;;;;;;;3.72;52.82;99598.66;30616389;28;96777;-61
2023/03/12 20:44:13;;;;;;;11.85;5.43;;;;;;;3.92;52.96;99616.22;30612522;28;97606;-62
2023/03/12 20:59:13;;;;;;;9.57;4.18;;;;;;;3.92;54.07;99617.06;30612105;28;96833;-61
2023/03/12 21:14:14;;;;;;;11.35;5.90;;;;;;;3.82;55.83;99603.91;30610362;28;96489;-61
2023/03/12 21:29:14;;;;;;;8.88;4.10;;;;;;;3.84;57.40;99599.34;30610552;28;97061;-61
2023/03/12 21:44:15;;;;;;;6.60;3.83;;;;;;;3.87;59.04;99579.78;30608478;28;98395;-62
2023/03/12 21:59:15;;;;;;;5.38;3.60;;;;;;;3.88;60.18;99586.69;30609111;28;96580;-62
2023/03/12 22:14:15;;;;;;;5.93;3.38;;;;;;;3.96;60.64;99568.34;30613585;28;97251;-62
2023/03/12 22:29:16;;;;;;;9.52;4.50;;;;;;;4.15;61.06;99553.47;30628756;28;96740;-62
2023/03/12 22:44:16;;;;;;;13.23;6.75;;;;;;;4.16;61.65;99541.97;30627016;28;97315;-62
2023/03/12 22:59:17;;;;;;;7.82;5.35;;;;;;;4.17;62.45;99527.78;30627030;28;96634;-62
2023/03/12 23:14:17;;;;;;;11.45;5.38;;;;;;;4.15;62.77;99520.03;30625846;28;97243;-62
2023/03/12 23:29:17;;;;;;;5.35;3.50;;;;;;;4.22;63.91;99491.28;30623687;28;96833;-63
2023/03/12 23:44:18;;;;;;;5.68;2.63;;;;;;;4.34;64.92;99474.28;30620740;28;96688;-62
2023/03/12 23:59:18;;;;;;;3.88;2.80;;;;;;;4.48;65.35;99487.94;30621534;28;97710;-62
